5T9

Maverick County Memorial International Airport

Eagle Pass, Texas, USA
METAR K5T9 210515Z AUTO 11007KT 10SM CLR 31/18 A2999 RMK A01
Observed Flight Rules
Aug-21 @ 05:15 UTC (12 hours ago) Visual Flight Rules
Wind Visibility Clouds
110° at 7 knots 10 miles
  • Clear skies
Temperatures Readings
Current 31°C / 88°F
Dewpoint 18°C / 64°F
Humidity 46%
Altimeter 29.99" Hg
Pressure 1016 hPa
Elevation 270
METAR K5T9 210515Z AUTO 11007KT 10SM CLR 31/18 A2999 RMK A01
Observed Flight Rules
Aug-21 @ 05:15 UTC
(12 hours ago)
VFR
Wind Visibility
110° at 7 knots 10 miles
Clouds
  • Clear skies
Temperature Dewpoint
31°C / 88°F 18°C / 64°F
Humidity Altimeter Pressure
46% 29.99" Hg 1016 hPa